createdAt,value
2019-03-27T00:00:11.858Z,99.90
2019-03-27T00:02:44.970Z,99.90
2019-03-27T00:07:46.769Z,99.90
2019-03-27T00:10:18.229Z,99.90
2019-03-27T00:12:49.802Z,99.90
2019-03-27T00:15:22.271Z,99.90
2019-03-27T00:17:53.895Z,99.90
2019-03-27T00:20:25.493Z,99.90
2019-03-27T00:22:56.985Z,99.90
2019-03-27T00:25:28.514Z,99.90
2019-03-27T00:28:00.023Z,99.90
2019-03-27T00:30:31.718Z,99.90
2019-03-27T00:33:03.158Z,99.90
2019-03-27T00:35:34.690Z,99.90
2019-03-27T00:38:06.212Z,99.90
2019-03-27T00:40:37.794Z,99.90
2019-03-27T00:43:09.222Z,99.90
2019-03-27T00:45:40.752Z,99.90
2019-03-27T00:48:12.259Z,99.90
2019-03-27T00:50:43.755Z,99.90
2019-03-27T00:53:15.337Z,99.90
2019-03-27T00:55:46.809Z,99.90
2019-03-27T00:58:18.230Z,99.90
2019-03-27T01:01:10.355Z,99.90
2019-03-27T01:03:42.026Z,99.90
2019-03-27T01:06:13.998Z,99.90
2019-03-27T01:08:45.497Z,99.90
2019-03-27T01:11:17.112Z,99.90
2019-03-27T01:13:48.626Z,99.90
2019-03-27T01:16:20.311Z,99.90
2019-03-27T01:18:51.846Z,99.90
2019-03-27T01:21:23.774Z,99.90
2019-03-27T01:23:55.329Z,99.90
2019-03-27T01:26:26.829Z,99.90
2019-03-27T01:28:59.261Z,99.90
2019-03-27T01:31:30.774Z,99.90
2019-03-27T01:34:02.322Z,99.90
2019-03-27T01:36:33.859Z,99.90
2019-03-27T01:39:06.747Z,99.90
2019-03-27T01:41:38.682Z,99.90
2019-03-27T01:44:10.194Z,99.90
2019-03-27T01:46:41.734Z,99.90
2019-03-27T01:49:13.234Z,99.90
2019-03-27T01:51:44.711Z,99.90
2019-03-27T01:54:16.216Z,99.90
2019-03-27T01:56:47.742Z,99.90
2019-03-27T02:01:49.554Z,99.90
2019-03-27T02:04:21.710Z,99.90
2019-03-27T02:06:53.150Z,99.90
2019-03-27T02:09:24.651Z,99.90
2019-03-27T02:11:56.177Z,99.90
2019-03-27T02:14:27.602Z,99.90
2019-03-27T02:16:59.186Z,99.90
2019-03-27T02:19:30.754Z,99.90
2019-03-27T02:22:02.290Z,99.90
2019-03-27T02:24:33.866Z,99.90
2019-03-27T02:27:05.401Z,99.90
2019-03-27T02:29:36.915Z,99.90
2019-03-27T02:32:08.525Z,99.90
2019-03-27T02:34:40.035Z,99.90
2019-03-27T02:37:11.538Z,99.90
2019-03-27T02:39:43.044Z,99.90
2019-03-27T02:42:15.520Z,99.90
2019-03-27T02:44:47.032Z,99.90
2019-03-27T02:47:18.535Z,99.90
2019-03-27T02:49:50.043Z,99.90
2019-03-27T02:52:21.545Z,99.90
2019-03-27T02:54:53.075Z,99.90
2019-03-27T02:57:24.575Z,99.90
2019-03-27T02:59:56.075Z,99.90
2019-03-27T03:02:27.663Z,99.90
2019-03-27T03:04:59.171Z,99.90
2019-03-27T03:07:30.705Z,99.90
2019-03-27T03:10:02.232Z,99.90
2019-03-27T03:12:33.805Z,99.90
2019-03-27T03:15:05.847Z,99.90
2019-03-27T03:17:37.340Z,99.90
2019-03-27T03:20:09.969Z,99.90
2019-03-27T03:22:41.631Z,99.90
2019-03-27T03:25:13.536Z,99.90
2019-03-27T03:27:45.059Z,99.90
2019-03-27T03:30:16.773Z,99.90
2019-03-27T03:32:48.293Z,99.90
2019-03-27T03:35:19.856Z,99.90
2019-03-27T03:37:52.030Z,99.90
2019-03-27T03:40:24.283Z,99.90
2019-03-27T03:45:28.107Z,99.90
2019-03-27T03:47:59.655Z,99.90
2019-03-27T03:50:39.542Z,99.90
2019-03-27T03:53:13.130Z,99.90
2019-03-27T03:55:44.738Z,99.90
2019-03-27T03:58:17.230Z,99.90
2019-03-27T04:00:49.039Z,99.90
2019-03-27T04:05:51.421Z,99.90
2019-03-27T04:08:22.930Z,99.90
2019-03-27T04:10:54.774Z,99.90
2019-03-27T04:13:26.302Z,99.90
2019-03-27T04:15:57.731Z,99.90
2019-03-27T04:18:29.245Z,99.90
2019-03-27T04:21:01.143Z,99.90
2019-03-27T04:23:32.695Z,99.90
2019-03-27T04:26:10.455Z,99.90
2019-03-27T04:28:38.840Z,99.90
2019-03-27T04:31:10.347Z,99.90
2019-03-27T04:33:41.929Z,99.90
2019-03-27T04:36:13.435Z,99.90
2019-03-27T04:38:44.984Z,99.90
2019-03-27T04:41:16.486Z,99.90
2019-03-27T04:43:48.054Z,99.90
2019-03-27T04:46:19.564Z,99.90
2019-03-27T04:48:51.154Z,99.90
2019-03-27T04:51:26.343Z,99.90
2019-03-27T04:53:57.990Z,99.90
2019-03-27T04:56:29.495Z,99.90
2019-03-27T04:59:01.090Z,99.90
2019-03-27T05:01:32.675Z,99.90
2019-03-27T05:04:05.421Z,99.90
2019-03-27T05:06:37.325Z,99.90
2019-03-27T05:09:08.866Z,99.90
2019-03-27T05:11:40.328Z,99.90
2019-03-27T05:14:11.878Z,99.90
2019-03-27T05:16:43.314Z,99.90
2019-03-27T05:19:14.927Z,99.90
2019-03-27T05:21:46.433Z,99.90
2019-03-27T05:24:18.038Z,99.90
2019-03-27T05:26:50.922Z,99.90
2019-03-27T05:29:23.772Z,99.90
2019-03-27T05:31:57.807Z,99.90
2019-03-27T05:34:29.638Z,99.90
2019-03-27T05:37:01.098Z,99.90
2019-03-27T05:39:33.198Z,99.90
2019-03-27T05:42:04.734Z,99.90
2019-03-27T05:44:36.261Z,99.90
2019-03-27T05:47:07.745Z,99.90
2019-03-27T05:49:39.235Z,99.90
2019-03-27T05:52:10.761Z,99.90
2019-03-27T05:54:42.282Z,99.90
2019-03-27T05:57:14.620Z,99.90
2019-03-27T05:59:46.366Z,99.90
2019-03-27T06:02:17.874Z,99.90
2019-03-27T06:04:49.670Z,99.90
2019-03-27T06:07:21.175Z,99.90
2019-03-27T06:09:52.674Z,99.90
2019-03-27T06:12:24.219Z,99.90
2019-03-27T06:14:55.710Z,99.90
2019-03-27T06:17:27.971Z,99.90
2019-03-27T06:20:00.835Z,99.90
2019-03-27T06:22:32.746Z,99.90
2019-03-27T06:25:04.342Z,99.90
2019-03-27T06:27:36.343Z,99.90
2019-03-27T06:30:08.842Z,99.90
2019-03-27T06:35:12.016Z,99.90
2019-03-27T06:37:44.310Z,99.90
2019-03-27T06:40:16.748Z,99.90
2019-03-27T06:42:48.182Z,99.90
2019-03-27T06:45:19.690Z,99.90
2019-03-27T06:47:51.198Z,99.90
2019-03-27T06:50:22.756Z,99.90
2019-03-27T06:52:55.489Z,99.90
2019-03-27T06:57:57.509Z,99.90
2019-03-27T07:00:36.524Z,99.90
2019-03-27T07:03:08.545Z,99.90
2019-03-27T07:08:10.618Z,99.90
2019-03-27T07:10:42.185Z,99.90
2019-03-27T07:13:13.674Z,99.90
2019-03-27T07:15:45.237Z,99.90
2019-03-27T07:20:47.060Z,99.90
2019-03-27T07:23:18.570Z,99.90
2019-03-27T07:25:50.078Z,99.90
2019-03-27T07:28:21.569Z,99.90
2019-03-27T07:30:53.106Z,99.90
2019-03-27T07:33:24.630Z,95.40
2019-03-27T07:35:56.154Z,91.20
2019-03-27T07:45:58.842Z,82.70
2019-03-27T07:48:30.606Z,79.70
2019-03-27T07:51:02.161Z,76.40
2019-03-27T07:53:33.678Z,75.60
2019-03-27T07:56:05.374Z,71.10
2019-03-27T07:58:36.880Z,66.70
2019-03-27T08:01:08.455Z,66.80
2019-03-27T08:03:39.886Z,66.10
2019-03-27T08:11:12.217Z,62.80
2019-03-27T08:16:14.074Z,59.70
2019-03-27T08:18:45.730Z,58.80
2019-03-27T08:21:17.238Z,58.40
2019-03-27T08:23:48.742Z,58.00
2019-03-27T08:26:20.250Z,55.50
2019-03-27T08:28:52.118Z,53.60
2019-03-27T08:31:23.684Z,52.60
2019-03-27T08:36:25.565Z,52.90
2019-03-27T08:41:30.754Z,49.80
2019-03-27T08:46:33.903Z,47.60
2019-03-27T08:49:06.075Z,48.20
2019-03-27T08:51:40.308Z,47.00
2019-03-27T08:54:12.377Z,46.00
2019-03-27T08:59:14.331Z,43.10
2019-03-27T09:04:16.206Z,43.00
2019-03-27T09:06:48.698Z,43.50
2019-03-27T09:09:20.226Z,41.90
2019-03-27T09:16:54.746Z,40.10
2019-03-27T09:19:35.483Z,37.60
2019-03-27T09:22:00.835Z,38.50
2019-03-27T09:24:32.959Z,40.20
2019-03-27T09:27:05.152Z,40.00
2019-03-27T09:29:37.198Z,38.10
2019-03-27T09:37:11.035Z,32.30
2019-03-27T09:42:14.038Z,34.80
2019-03-27T09:44:46.474Z,36.80
2019-03-27T09:47:18.531Z,37.00
2019-03-27T09:49:50.657Z,37.40
2019-03-27T09:52:22.718Z,35.70
2019-03-27T09:54:54.910Z,33.50
2019-03-27T09:57:26.926Z,31.50
2019-03-27T09:59:59.444Z,30.40
2019-03-27T10:02:31.506Z,30.80
2019-03-27T10:05:03.622Z,30.00
2019-03-27T10:10:07.658Z,30.10
2019-03-27T10:12:39.633Z,27.90
2019-03-27T10:15:11.943Z,28.90
2019-03-27T10:17:43.982Z,28.40
2019-03-27T10:20:16.039Z,28.80
2019-03-27T10:27:50.965Z,28.50
2019-03-27T10:30:23.022Z,28.00
2019-03-27T10:32:55.093Z,29.20
2019-03-27T10:35:27.134Z,29.40
2019-03-27T10:37:59.297Z,28.00
2019-03-27T10:40:31.351Z,28.00
2019-03-27T10:43:04.513Z,28.80
2019-03-27T10:45:36.563Z,27.70
2019-03-27T10:48:08.660Z,27.80
2019-03-27T10:53:11.743Z,28.60
2019-03-27T10:55:43.942Z,29.30
2019-03-27T11:03:28.496Z,28.70
2019-03-27T11:06:00.608Z,29.90
2019-03-27T11:08:33.109Z,28.90
2019-03-27T11:11:05.178Z,28.60
2019-03-27T11:13:37.259Z,27.80
2019-03-27T11:16:09.448Z,29.20
2019-03-27T11:18:42.611Z,30.00
2019-03-27T11:21:14.738Z,29.60
2019-03-27T11:23:46.728Z,31.70
2019-03-27T11:26:18.826Z,30.30
2019-03-27T11:28:50.897Z,32.00
2019-03-27T11:33:54.153Z,31.20
2019-03-27T11:36:26.338Z,29.10
2019-03-27T11:38:58.432Z,28.10
2019-03-27T11:41:30.508Z,27.90
2019-03-27T11:44:02.586Z,29.40
2019-03-27T11:46:35.019Z,31.70
2019-03-27T11:51:38.081Z,30.40
2019-03-27T11:54:10.144Z,33.80
2019-03-27T11:56:42.272Z,32.00
2019-03-27T11:59:14.443Z,31.50
2019-03-27T12:01:46.498Z,31.10
2019-03-27T12:06:49.603Z,34.00
2019-03-27T12:09:21.750Z,34.90
2019-03-27T12:11:53.866Z,41.00
2019-03-27T12:14:25.882Z,46.40
2019-03-27T12:16:57.382Z,51.60
2019-03-27T12:19:28.920Z,55.60
2019-03-27T12:22:00.429Z,51.60
2019-03-27T12:24:31.990Z,50.90
2019-03-27T12:27:03.521Z,55.70
2019-03-27T12:29:35.151Z,59.30
2019-03-27T12:32:06.664Z,62.20
2019-03-27T12:34:38.514Z,64.70
2019-03-27T12:37:10.751Z,78.20
2019-03-27T12:39:42.330Z,83.60
2019-03-27T12:44:44.171Z,93.40
2019-03-27T12:47:15.842Z,96.20
2019-03-27T12:49:47.395Z,99.90
2019-03-27T12:54:50.411Z,99.90
2019-03-27T12:57:21.910Z,99.90
2019-03-27T12:59:53.378Z,99.90
2019-03-27T13:02:24.890Z,99.90
2019-03-27T13:04:56.386Z,99.90
2019-03-27T13:07:27.897Z,99.90
2019-03-27T13:09:59.366Z,99.90
2019-03-27T13:15:01.283Z,99.90
2019-03-27T13:17:34.444Z,99.90
2019-03-27T13:20:06.655Z,99.90
2019-03-27T13:25:10.330Z,99.90
2019-03-27T13:27:42.078Z,99.90
2019-03-27T13:30:14.078Z,99.90
2019-03-27T13:32:45.704Z,99.90
2019-03-27T13:35:17.255Z,99.90
2019-03-27T13:37:48.861Z,99.90
2019-03-27T13:40:20.507Z,99.90
2019-03-27T13:42:53.058Z,99.90
2019-03-27T13:45:24.622Z,99.90
2019-03-27T13:47:56.190Z,99.90
2019-03-27T13:50:27.820Z,99.90
2019-03-27T13:52:59.438Z,99.90
2019-03-27T13:55:30.978Z,99.90
2019-03-27T13:58:02.511Z,99.90
2019-03-27T14:03:04.465Z,99.90
2019-03-27T14:05:35.990Z,99.90
2019-03-27T14:08:07.495Z,99.90
2019-03-27T14:10:39.115Z,99.90
2019-03-27T14:15:42.115Z,96.90
2019-03-27T14:18:13.633Z,80.80
2019-03-27T14:20:45.068Z,69.30
2019-03-27T14:23:16.622Z,71.60
2019-03-27T14:25:48.119Z,76.60
2019-03-27T14:30:52.604Z,87.00
2019-03-27T14:33:25.061Z,90.00
2019-03-27T14:35:57.005Z,93.80
2019-03-27T14:38:28.542Z,97.90
2019-03-27T14:41:00.054Z,99.90
2019-03-27T14:43:31.696Z,99.90
2019-03-27T14:46:03.237Z,99.90
2019-03-27T14:48:34.876Z,99.90
2019-03-27T14:51:06.523Z,99.90
2019-03-27T14:53:38.039Z,99.90
2019-03-27T14:56:09.566Z,99.90
2019-03-27T14:58:41.212Z,73.10
2019-03-27T15:06:13.816Z,83.80
2019-03-27T15:08:45.342Z,93.50
2019-03-27T15:11:16.926Z,99.90
2019-03-27T15:13:48.822Z,99.90
2019-03-27T15:18:52.545Z,99.90
2019-03-27T15:23:54.639Z,99.90
2019-03-27T15:28:56.566Z,99.90
2019-03-27T15:31:28.790Z,99.90
2019-03-27T15:36:31.847Z,99.90
2019-03-27T15:46:36.189Z,99.90
2019-03-27T15:51:38.144Z,99.90
2019-03-27T15:54:09.653Z,99.90
2019-03-27T15:56:41.198Z,99.90
2019-03-27T15:59:13.106Z,99.90
2019-03-27T16:01:45.010Z,99.90
2019-03-27T16:04:16.504Z,99.90
2019-03-27T16:06:48.059Z,99.90
2019-03-27T16:09:21.262Z,99.90
2019-03-27T16:11:53.079Z,99.90
2019-03-27T16:14:24.655Z,99.90
2019-03-27T16:21:58.663Z,99.90
2019-03-27T16:24:30.495Z,99.90
2019-03-27T16:27:04.751Z,99.90
2019-03-27T16:29:35.549Z,99.90
2019-03-27T16:32:07.959Z,99.90
2019-03-27T16:34:39.791Z,99.90
2019-03-27T16:37:11.525Z,99.90
2019-03-27T16:39:43.251Z,99.90
2019-03-27T16:42:15.089Z,99.90
2019-03-27T16:44:46.836Z,99.90
2019-03-27T16:47:18.755Z,99.90
2019-03-27T16:49:50.339Z,99.90
2019-03-27T16:52:21.870Z,99.90
2019-03-27T16:54:53.466Z,99.90
2019-03-27T16:57:25.510Z,99.90
2019-03-27T16:59:57.093Z,99.90
2019-03-27T17:02:29.308Z,99.90
2019-03-27T17:05:01.081Z,99.90
2019-03-27T17:07:34.066Z,99.90
2019-03-27T17:10:06.193Z,99.90
2019-03-27T17:12:37.846Z,99.90
2019-03-27T17:15:09.778Z,99.90
2019-03-27T17:17:41.253Z,99.90
2019-03-27T17:20:13.417Z,99.90
2019-03-27T17:22:45.206Z,99.90
2019-03-27T17:25:17.040Z,99.90
2019-03-27T17:27:48.662Z,99.90
2019-03-27T17:30:20.794Z,99.90
2019-03-27T17:32:52.558Z,99.90
2019-03-27T17:35:24.184Z,99.90
2019-03-27T17:37:55.938Z,99.90
2019-03-27T17:40:28.045Z,99.90
2019-03-27T17:43:01.509Z,99.90
2019-03-27T17:45:33.394Z,99.90
2019-03-27T17:48:05.482Z,99.90
2019-03-27T17:50:38.578Z,99.90
2019-03-27T17:53:10.242Z,99.90
2019-03-27T17:55:41.838Z,99.90
2019-03-27T17:58:13.362Z,99.90
2019-03-27T18:00:55.178Z,99.90
2019-03-27T18:03:26.686Z,99.90
2019-03-27T18:05:59.178Z,99.90
2019-03-27T18:08:30.585Z,99.90
2019-03-27T18:11:02.457Z,99.90
2019-03-27T18:13:33.953Z,99.90
2019-03-27T18:16:05.547Z,99.90
2019-03-27T18:18:37.050Z,99.90
2019-03-27T18:21:08.546Z,99.90
2019-03-27T18:23:45.822Z,99.90
2019-03-27T18:26:13.183Z,99.90
2019-03-27T18:28:44.781Z,99.90
2019-03-27T18:31:16.478Z,99.90
2019-03-27T18:36:18.364Z,99.90
2019-03-27T18:38:49.886Z,99.90
2019-03-27T18:41:21.318Z,99.90
2019-03-27T18:43:52.853Z,99.90
2019-03-27T18:46:24.346Z,99.90
2019-03-27T18:48:55.772Z,99.90
2019-03-27T18:51:27.268Z,99.90
2019-03-27T18:54:00.121Z,99.90
2019-03-27T18:56:31.883Z,99.90
2019-03-27T19:05:40.880Z,99.90
2019-03-27T19:08:12.439Z,99.90
2019-03-27T19:10:43.959Z,99.90
2019-03-27T19:13:15.870Z,99.90
2019-03-27T19:15:47.363Z,99.90
2019-03-27T19:18:19.194Z,99.90
2019-03-27T19:20:50.686Z,99.90
2019-03-27T19:23:22.242Z,99.90
2019-03-27T19:25:53.875Z,99.90
2019-03-27T19:30:56.162Z,99.90
2019-03-27T19:33:27.697Z,99.90
2019-03-27T19:35:59.302Z,99.90
2019-03-27T19:38:30.899Z,99.90
2019-03-27T19:43:33.029Z,99.90
2019-03-27T19:46:04.839Z,99.90
2019-03-27T19:48:36.342Z,99.90
2019-03-27T19:51:11.129Z,99.90
2019-03-27T19:53:41.238Z,99.90
2019-03-27T19:56:12.814Z,99.90
2019-03-27T20:06:15.772Z,99.90
2019-03-27T20:08:47.543Z,99.90
2019-03-27T20:11:19.238Z,99.90
2019-03-27T20:13:50.866Z,99.90
2019-03-27T20:16:23.326Z,99.90
2019-03-27T20:18:55.277Z,99.90
2019-03-27T20:21:26.785Z,99.90
2019-03-27T20:26:28.762Z,99.90
2019-03-27T20:29:00.486Z,99.90
2019-03-27T20:31:32.147Z,99.90
2019-03-27T20:34:03.806Z,99.90
2019-03-27T20:36:35.415Z,99.90
2019-03-27T20:41:38.997Z,99.90
2019-03-27T20:44:10.556Z,99.90
2019-03-27T20:46:42.126Z,99.90
2019-03-27T20:49:15.038Z,99.90
2019-03-27T20:51:46.698Z,99.90
2019-03-27T20:54:18.622Z,99.90
2019-03-27T20:56:50.490Z,99.90
2019-03-27T20:59:22.082Z,99.90
2019-03-27T21:01:53.713Z,99.90
2019-03-27T21:04:25.317Z,99.90
2019-03-27T21:06:57.246Z,99.90
2019-03-27T21:09:29.174Z,99.90
2019-03-27T21:12:00.964Z,99.90
2019-03-27T21:14:32.558Z,99.90
2019-03-27T21:17:04.070Z,99.90
2019-03-27T21:19:36.273Z,99.90
2019-03-27T21:22:07.842Z,99.90
2019-03-27T21:24:39.326Z,99.90
2019-03-27T21:27:10.846Z,99.90
2019-03-27T21:29:42.329Z,99.90
2019-03-27T21:32:13.909Z,99.90
2019-03-27T21:37:15.934Z,99.90
2019-03-27T21:39:47.496Z,99.90
2019-03-27T21:42:19.088Z,99.90
2019-03-27T21:44:50.729Z,99.90
2019-03-27T21:49:52.665Z,99.90
2019-03-27T21:52:24.314Z,99.90
2019-03-27T21:54:55.911Z,99.90
2019-03-27T21:57:27.493Z,99.90
2019-03-27T21:59:59.236Z,99.90
2019-03-27T22:02:30.817Z,99.90
2019-03-27T22:05:02.314Z,99.90
2019-03-27T22:07:33.814Z,99.90
2019-03-27T22:10:06.549Z,99.90
2019-03-27T22:12:38.714Z,99.90
2019-03-27T22:15:12.369Z,99.90
2019-03-27T22:17:45.804Z,99.90
2019-03-27T22:22:50.424Z,99.90
2019-03-27T22:25:34.900Z,99.90
2019-03-27T22:27:55.082Z,99.90
2019-03-27T22:30:26.601Z,99.90
2019-03-27T22:32:58.038Z,99.90
2019-03-27T22:35:29.539Z,99.90
2019-03-27T22:40:31.554Z,99.90
2019-03-27T22:43:03.449Z,99.90
2019-03-27T22:45:35.038Z,99.90
2019-03-27T22:48:06.652Z,99.90
2019-03-27T22:50:42.958Z,99.90
2019-03-27T22:53:14.510Z,99.90
2019-03-27T22:55:50.015Z,99.90
2019-03-27T22:58:19.122Z,99.90
2019-03-27T23:00:53.677Z,99.90
2019-03-27T23:03:25.194Z,99.90
2019-03-27T23:05:56.759Z,99.90
2019-03-27T23:08:28.274Z,99.90
2019-03-27T23:10:59.822Z,99.90
2019-03-27T23:13:31.262Z,99.90
2019-03-27T23:16:02.826Z,99.90
2019-03-27T23:18:34.326Z,99.90
2019-03-27T23:21:07.666Z,99.90
2019-03-27T23:23:39.443Z,99.90
2019-03-27T23:26:10.966Z,99.90
2019-03-27T23:28:42.470Z,99.90
2019-03-27T23:31:14.083Z,99.90
2019-03-27T23:33:45.633Z,99.90
2019-03-27T23:36:17.230Z,99.90
2019-03-27T23:38:48.714Z,99.90
2019-03-27T23:41:20.262Z,99.90
2019-03-27T23:43:51.780Z,99.90
2019-03-27T23:46:23.335Z,99.90
2019-03-27T23:48:55.202Z,99.90
2019-03-27T23:51:26.692Z,99.90
2019-03-27T23:53:58.186Z,99.90
2019-03-27T23:56:29.677Z,99.90
2019-03-27T23:59:01.437Z,99.90
